Pagrindinis puslapis
METAR-TAF:

METAR-TAF

Oro uostai :

Gachsaran, Iranas

platuma: 30-26N, ilguma: 050-46E, Aukštis: 738 m

Dabartinis oras

Ataskaita buvo paskelbta 1 valandą ir 8 minutes, ne 01:00 UTC
Ramus vėjas
Temperatūra 13°C
Drėgmė 94%
Slėgis 1013 hPa
Matomumas 10 km arba daugiau
Išsisklaidę debesys ne aukštis 4000 ft
Su prošvaistėmis ne aukštis 10000 ft

METAR: OIAH 010100Z 00000KT 9999 SCT040 BKN100 13/12 Q1013

Laikas: 06:38 (02:08 UTC)


TAF: trūkstamas

Orai ataskaitas ir orų prognozės (METAR, TAF).

turimą stotys yra geltonos ir raudonos taškus žemėlapyje.

Perkelti pele per norėdami pamatyti stoties vardą.

Tada spustelėkite, norėdami matyti oro stebėjimo ir prognozės.

Norėdami pakeisti žemėlapį: spustelėkite ant žalios mygtukų su juodo kryžiaus žemyn,; žalią mygtuką su brūkšneliu, jei norite nutolinti; arba žalių rodyklių gretimoms žemėlapius.


METAR-TAF: